createdAt,value
2023-02-13T00:01:10.332Z,20.40
2023-02-13T00:03:37.860Z,22.00
2023-02-13T00:06:05.225Z,22.50
2023-02-13T00:08:32.488Z,21.57
2023-02-13T00:11:00.088Z,22.37
2023-02-13T00:13:27.691Z,22.33
2023-02-13T00:16:04.383Z,22.20
2023-02-13T00:18:36.594Z,22.07
2023-02-13T00:21:04.014Z,21.67
2023-02-13T00:23:33.057Z,22.30
2023-02-13T00:26:02.018Z,22.53
2023-02-13T00:28:29.862Z,22.40
2023-02-13T00:31:13.507Z,22.57
2023-02-13T00:33:42.721Z,22.50
2023-02-13T00:36:13.875Z,22.43
2023-02-13T00:38:42.224Z,20.80
2023-02-13T00:41:10.397Z,19.97
2023-02-13T00:43:38.351Z,21.03
2023-02-13T00:46:06.430Z,21.57
2023-02-13T00:48:34.831Z,22.47
2023-02-13T00:51:02.527Z,22.30
2023-02-13T00:53:31.701Z,22.53
2023-02-13T00:55:59.171Z,21.57
2023-02-13T00:58:26.855Z,23.10
2023-02-13T01:00:55.645Z,22.53
2023-02-13T01:03:24.036Z,22.17
2023-02-13T01:05:51.730Z,22.20
2023-02-13T01:08:20.456Z,21.73
2023-02-13T01:10:48.831Z,22.90
2023-02-13T01:13:18.419Z,22.87
2023-02-13T01:15:46.831Z,22.50
2023-02-13T01:18:18.650Z,21.70
2023-02-13T01:20:55.415Z,21.37
2023-02-13T01:23:23.199Z,21.57
2023-02-13T01:25:52.582Z,21.97
2023-02-13T01:28:19.929Z,21.50
2023-02-13T01:30:53.954Z,22.23
2023-02-13T01:33:23.698Z,20.23
2023-02-13T01:35:51.815Z,21.53
2023-02-13T01:38:19.417Z,22.40
2023-02-13T01:40:54.316Z,22.00
2023-02-13T01:43:23.569Z,22.60
2023-02-13T01:45:56.254Z,22.30
2023-02-13T01:48:27.325Z,21.53
2023-02-13T01:51:00.820Z,20.13
2023-02-13T01:53:38.090Z,21.27
2023-02-13T01:56:15.057Z,21.43
2023-02-13T01:58:46.693Z,22.13
2023-02-13T02:01:15.117Z,20.73
2023-02-13T02:04:09.536Z,21.27
2023-02-13T02:06:58.758Z,19.03
2023-02-13T02:09:36.946Z,19.67
2023-02-13T02:12:13.729Z,19.47
2023-02-13T02:14:42.620Z,18.87
2023-02-13T02:17:11.965Z,19.53
2023-02-13T02:19:47.262Z,19.90
2023-02-13T02:22:15.194Z,20.27
2023-02-13T02:25:20.792Z,21.10
2023-02-13T02:28:22.802Z,20.47
2023-02-13T02:31:10.535Z,20.33
2023-02-13T02:33:56.267Z,19.73
2023-02-13T02:36:39.702Z,19.63
2023-02-13T02:39:21.039Z,19.47
2023-02-13T02:42:14.219Z,19.53
2023-02-13T02:44:45.254Z,18.73
2023-02-13T02:47:44.849Z,19.60
2023-02-13T02:50:30.343Z,19.73
2023-02-13T02:53:35.795Z,19.10
2023-02-13T02:56:25.369Z,19.20
2023-02-13T02:59:17.069Z,18.70
2023-02-13T03:02:04.464Z,18.07
2023-02-13T03:04:55.055Z,17.40
2023-02-13T03:07:22.301Z,18.00
2023-02-13T03:10:15.100Z,19.00
2023-02-13T03:13:13.032Z,18.10
2023-02-13T03:16:01.832Z,17.53
2023-02-13T03:18:54.279Z,17.70
2023-02-13T03:21:51.893Z,16.83
2023-02-13T03:25:00.854Z,17.77
2023-02-13T03:28:11.955Z,17.87
2023-02-13T03:31:16.454Z,18.00
2023-02-13T03:34:04.013Z,18.60
2023-02-13T03:37:12.268Z,17.83
2023-02-13T03:39:59.720Z,17.17
2023-02-13T03:42:37.236Z,17.37
2023-02-13T03:45:29.585Z,15.43
2023-02-13T03:47:59.158Z,16.20
2023-02-13T03:50:28.650Z,16.33
2023-02-13T03:53:09.873Z,16.67
2023-02-13T03:56:01.542Z,16.00
2023-02-13T03:59:07.245Z,16.97
2023-02-13T04:01:37.290Z,17.80
2023-02-13T04:04:13.475Z,17.67
2023-02-13T04:06:58.830Z,16.50
2023-02-13T04:09:28.122Z,15.90
2023-02-13T04:11:58.391Z,17.60
2023-02-13T04:14:33.508Z,17.27
2023-02-13T04:17:18.102Z,15.40
2023-02-13T04:19:45.397Z,16.20
2023-02-13T04:22:13.270Z,14.27
2023-02-13T04:24:40.660Z,16.23
2023-02-13T04:27:08.182Z,16.97
2023-02-13T04:29:35.410Z,17.23
2023-02-13T04:32:02.712Z,16.80
2023-02-13T04:34:30.074Z,17.93
2023-02-13T04:36:57.312Z,16.70
2023-02-13T04:39:24.562Z,15.90
2023-02-13T04:41:51.817Z,15.30
2023-02-13T04:44:19.056Z,15.50
2023-02-13T04:46:46.291Z,15.80
2023-02-13T04:49:13.906Z,15.27
2023-02-13T04:51:41.272Z,15.90
2023-02-13T04:54:08.670Z,14.70
2023-02-13T04:56:35.921Z,14.50
2023-02-13T04:59:03.566Z,15.43
2023-02-13T05:01:31.039Z,15.60
2023-02-13T05:03:58.297Z,14.97
2023-02-13T05:06:25.535Z,14.97
2023-02-13T05:08:52.791Z,14.37
2023-02-13T05:11:20.020Z,13.70
2023-02-13T05:13:47.264Z,13.87
2023-02-13T05:16:14.582Z,12.83
2023-02-13T05:18:41.865Z,14.03
2023-02-13T05:21:27.724Z,16.40
2023-02-13T05:23:55.007Z,15.07
2023-02-13T05:26:22.240Z,14.00
2023-02-13T05:29:08.132Z,13.17
2023-02-13T05:31:35.892Z,13.23
2023-02-13T05:34:03.242Z,14.10
2023-02-13T05:36:30.472Z,13.33
2023-02-13T05:38:57.899Z,13.23
2023-02-13T05:41:25.316Z,13.40
2023-02-13T05:43:52.571Z,12.80
2023-02-13T05:46:19.978Z,13.53
2023-02-13T05:48:47.665Z,12.93
2023-02-13T05:51:15.097Z,13.10
2023-02-13T05:53:42.491Z,12.90
2023-02-13T05:56:09.795Z,14.53
2023-02-13T05:58:37.559Z,13.37
2023-02-13T06:01:05.280Z,13.57
2023-02-13T06:03:33.349Z,18.90
2023-02-13T06:06:00.653Z,15.73
2023-02-13T06:08:28.121Z,14.37
2023-02-13T06:10:55.622Z,12.70
2023-02-13T06:13:23.164Z,11.03
2023-02-13T06:15:50.921Z,12.53
2023-02-13T06:18:18.408Z,12.53
2023-02-13T06:20:45.974Z,13.57
2023-02-13T06:23:13.481Z,13.10
2023-02-13T06:25:41.009Z,12.40
2023-02-13T06:28:08.816Z,13.60
2023-02-13T06:30:36.181Z,11.97
2023-02-13T06:33:03.593Z,10.87
2023-02-13T06:35:30.891Z,11.03
2023-02-13T06:37:58.256Z,11.63
2023-02-13T06:40:26.038Z,10.63
2023-02-13T06:42:53.498Z,10.40
2023-02-13T06:45:20.795Z,10.37
2023-02-13T06:47:48.802Z,11.90
2023-02-13T06:50:18.128Z,10.80
2023-02-13T06:52:50.596Z,9.67
2023-02-13T06:55:18.777Z,10.20
2023-02-13T06:57:46.832Z,10.10
2023-02-13T07:00:16.620Z,10.07
2023-02-13T07:02:45.458Z,9.33
2023-02-13T07:05:14.008Z,12.57
2023-02-13T07:07:42.871Z,12.03
2023-02-13T07:10:13.486Z,22.07
2023-02-13T07:12:40.843Z,16.40
2023-02-13T07:15:08.538Z,11.93
2023-02-13T07:17:36.362Z,10.53
2023-02-13T07:20:05.059Z,11.27
2023-02-13T07:22:33.505Z,13.10
2023-02-13T07:25:01.477Z,13.63
2023-02-13T07:27:29.469Z,12.30
2023-02-13T07:29:57.902Z,10.60
2023-02-13T07:32:26.058Z,10.67
2023-02-13T07:35:01.638Z,10.20
2023-02-13T07:37:31.621Z,9.63
2023-02-13T07:39:59.072Z,9.53
2023-02-13T07:42:26.415Z,9.70
2023-02-13T07:44:53.785Z,9.83
2023-02-13T07:47:21.048Z,9.37
2023-02-13T07:49:48.347Z,9.43
2023-02-13T07:52:15.611Z,9.47
2023-02-13T07:54:47.520Z,10.23
2023-02-13T07:57:16.248Z,10.23
2023-02-13T07:59:43.883Z,10.13
2023-02-13T08:02:15.555Z,10.80
2023-02-13T08:04:46.441Z,10.53
2023-02-13T08:07:15.887Z,11.07
2023-02-13T08:10:03.813Z,11.87
2023-02-13T08:12:32.582Z,10.80
2023-02-13T08:14:59.998Z,10.40
2023-02-13T08:17:27.270Z,10.60
2023-02-13T08:19:55.035Z,11.37
2023-02-13T08:22:22.435Z,10.67
2023-02-13T08:24:49.717Z,10.30
2023-02-13T08:27:17.369Z,10.13
2023-02-13T08:29:44.631Z,10.53
2023-02-13T08:32:12.535Z,10.10
2023-02-13T08:34:39.934Z,11.30
2023-02-13T08:37:07.376Z,10.70
2023-02-13T08:39:34.741Z,10.87
2023-02-13T08:42:02.018Z,11.53
2023-02-13T08:44:29.284Z,9.73
2023-02-13T08:46:56.785Z,10.83
2023-02-13T08:49:24.160Z,10.27
2023-02-13T08:51:52.764Z,10.40
2023-02-13T08:54:20.054Z,11.17
2023-02-13T08:56:47.507Z,10.93
2023-02-13T08:59:14.755Z,10.20
2023-02-13T09:01:42.277Z,11.27
2023-02-13T09:04:09.694Z,10.00
2023-02-13T09:06:37.158Z,9.67
2023-02-13T09:09:07.439Z,10.67
2023-02-13T09:11:34.747Z,9.13
2023-02-13T09:14:02.110Z,10.83
2023-02-13T09:16:29.480Z,10.33
2023-02-13T09:18:56.757Z,10.70
2023-02-13T09:21:24.010Z,10.33
2023-02-13T09:23:51.729Z,12.27
2023-02-13T09:26:20.696Z,11.23
2023-02-13T09:28:48.258Z,10.70
2023-02-13T09:31:20.782Z,9.87
2023-02-13T09:33:49.913Z,10.90
2023-02-13T09:36:21.705Z,10.27
2023-02-13T09:38:52.723Z,10.17
2023-02-13T09:41:53.947Z,9.57
2023-02-13T09:44:38.318Z,10.13
2023-02-13T09:47:29.288Z,9.70
2023-02-13T09:50:00.623Z,9.30
2023-02-13T09:52:35.772Z,9.30
2023-02-13T09:55:10.155Z,9.00
2023-02-13T09:57:43.737Z,9.77
2023-02-13T10:00:29.641Z,8.87
2023-02-13T10:02:56.868Z,9.37
2023-02-13T10:05:43.030Z,8.97
2023-02-13T10:08:19.430Z,9.93
2023-02-13T10:10:53.696Z,9.20
2023-02-13T10:14:02.926Z,9.80
2023-02-13T10:16:45.198Z,9.00
2023-02-13T10:19:52.922Z,9.87
2023-02-13T10:22:33.084Z,8.63
2023-02-13T10:25:10.746Z,8.07
2023-02-13T10:27:46.032Z,8.40
2023-02-13T10:30:32.221Z,8.43
2023-02-13T10:33:21.968Z,7.87
2023-02-13T10:36:21.269Z,7.80
2023-02-13T10:39:02.478Z,7.67
2023-02-13T10:41:32.632Z,8.57
2023-02-13T10:44:12.590Z,7.80
2023-02-13T10:47:16.950Z,7.17
2023-02-13T10:49:44.282Z,7.67
2023-02-13T10:52:27.023Z,6.70
2023-02-13T10:55:05.688Z,6.70
2023-02-13T10:57:44.115Z,6.83
2023-02-13T11:00:31.583Z,7.20
2023-02-13T11:03:00.156Z,6.20
2023-02-13T11:05:40.094Z,8.77
2023-02-13T11:08:21.827Z,8.23
2023-02-13T11:10:50.265Z,9.27
2023-02-13T11:13:23.822Z,6.70
2023-02-13T11:16:13.922Z,7.07
2023-02-13T11:18:49.786Z,5.70
2023-02-13T11:21:22.382Z,6.00
2023-02-13T11:23:56.280Z,6.80
2023-02-13T11:26:43.841Z,6.13
2023-02-13T11:29:30.438Z,5.87
2023-02-13T11:32:03.379Z,5.27
2023-02-13T11:34:32.719Z,4.90
2023-02-13T11:37:21.013Z,4.67
2023-02-13T11:39:51.766Z,4.50
2023-02-13T11:42:25.082Z,4.50
2023-02-13T11:44:55.903Z,5.40
2023-02-13T11:47:42.145Z,4.97
2023-02-13T11:50:21.799Z,5.07
2023-02-13T11:52:56.637Z,5.50
2023-02-13T11:55:48.700Z,4.77
2023-02-13T11:58:16.420Z,5.60
2023-02-13T12:00:44.337Z,5.83
2023-02-13T12:03:29.225Z,5.60
2023-02-13T12:06:15.569Z,5.30
2023-02-13T12:08:46.446Z,4.90
2023-02-13T12:11:41.049Z,4.97
2023-02-13T12:14:16.521Z,5.20
2023-02-13T12:17:01.050Z,4.93
2023-02-13T12:19:39.368Z,5.33
2023-02-13T12:22:35.246Z,5.50
2023-02-13T12:25:41.765Z,4.73
2023-02-13T12:28:20.278Z,5.73
2023-02-13T12:31:21.328Z,4.63
2023-02-13T12:34:15.704Z,5.10
2023-02-13T12:37:10.293Z,5.47
2023-02-13T12:39:46.231Z,5.13
2023-02-13T12:42:26.557Z,5.03
2023-02-13T12:45:14.942Z,5.00
2023-02-13T12:48:21.820Z,5.20
2023-02-13T12:50:53.952Z,5.40
2023-02-13T12:53:46.498Z,5.43
2023-02-13T12:56:38.648Z,5.07
2023-02-13T12:59:17.456Z,4.80
2023-02-13T13:02:09.348Z,5.17
2023-02-13T13:04:55.496Z,5.33
2023-02-13T13:07:31.910Z,5.10
2023-02-13T13:10:27.216Z,5.17
2023-02-13T13:13:03.676Z,5.63
2023-02-13T13:15:45.915Z,5.27
2023-02-13T13:18:36.602Z,5.17
2023-02-13T13:21:34.964Z,5.77
2023-02-13T13:24:14.770Z,5.73
2023-02-13T13:26:49.232Z,5.20
2023-02-13T13:29:32.778Z,5.97
2023-02-13T13:32:07.368Z,5.67
2023-02-13T13:34:37.302Z,5.97
2023-02-13T13:37:21.185Z,5.37
2023-02-13T13:40:23.853Z,6.40
2023-02-13T13:43:23.538Z,5.80
2023-02-13T13:46:09.164Z,5.87
2023-02-13T13:48:49.781Z,5.17
2023-02-13T13:51:18.970Z,5.87
2023-02-13T13:54:07.564Z,6.30
2023-02-13T13:56:53.128Z,6.07
2023-02-13T13:59:38.656Z,5.53
2023-02-13T14:02:18.682Z,5.17
2023-02-13T14:04:57.964Z,4.97
2023-02-13T14:07:25.366Z,6.30
2023-02-13T14:09:52.872Z,5.10
2023-02-13T14:12:29.035Z,5.47
2023-02-13T14:14:57.745Z,4.97
2023-02-13T14:17:43.510Z,3.90
2023-02-13T14:20:31.629Z,4.13
2023-02-13T14:23:17.104Z,4.50
2023-02-13T14:25:45.122Z,3.67
2023-02-13T14:28:25.258Z,4.37
2023-02-13T14:31:04.527Z,4.47
2023-02-13T14:33:32.801Z,4.30
2023-02-13T14:36:21.835Z,3.87
2023-02-13T14:38:57.211Z,3.23
2023-02-13T14:41:43.833Z,5.00
2023-02-13T14:44:40.373Z,4.13
2023-02-13T14:47:30.337Z,3.30
2023-02-13T14:49:59.582Z,3.30
2023-02-13T14:52:32.704Z,3.07
2023-02-13T14:55:04.804Z,3.00
2023-02-13T14:57:42.901Z,2.43
2023-02-13T15:00:28.376Z,3.20
2023-02-13T15:03:02.729Z,3.40
2023-02-13T15:05:34.090Z,3.60
2023-02-13T15:08:21.012Z,3.93
2023-02-13T15:10:53.770Z,3.87
2023-02-13T15:13:37.274Z,4.17
2023-02-13T15:16:10.220Z,4.23
2023-02-13T15:18:52.898Z,7.70
2023-02-13T15:21:33.249Z,12.30
2023-02-13T15:24:00.540Z,14.53
2023-02-13T15:26:29.188Z,10.30
2023-02-13T15:29:02.250Z,18.37
2023-02-13T15:31:34.745Z,6.73
2023-02-13T15:34:02.089Z,3.20
2023-02-13T15:36:39.464Z,2.80
2023-02-13T15:39:09.952Z,2.97
2023-02-13T15:41:44.930Z,2.70
2023-02-13T15:44:32.839Z,3.00
2023-02-13T15:47:22.775Z,3.00
2023-02-13T15:49:50.524Z,2.90
2023-02-13T15:52:32.521Z,9.03
2023-02-13T15:55:00.421Z,3.20
2023-02-13T15:57:32.755Z,3.03
2023-02-13T16:00:01.577Z,3.43
2023-02-13T16:02:46.341Z,4.33
2023-02-13T16:05:17.149Z,3.40
2023-02-13T16:07:50.269Z,3.37
2023-02-13T16:10:33.030Z,3.87
2023-02-13T16:13:06.790Z,4.27
2023-02-13T16:15:37.492Z,5.13
2023-02-13T16:18:06.311Z,4.20
2023-02-13T16:20:35.234Z,4.37
2023-02-13T16:23:07.487Z,4.73
2023-02-13T16:25:38.180Z,5.07
2023-02-13T16:28:19.457Z,5.93
2023-02-13T16:30:59.664Z,6.33
2023-02-13T16:33:32.075Z,4.20
2023-02-13T16:36:10.230Z,8.33
2023-02-13T16:38:40.381Z,6.63
2023-02-13T16:41:19.964Z,10.90
2023-02-13T16:43:49.278Z,8.30
2023-02-13T16:46:21.963Z,5.27
2023-02-13T16:49:11.105Z,4.83
2023-02-13T16:51:38.807Z,7.13
2023-02-13T16:54:12.210Z,11.47
2023-02-13T16:56:56.646Z,10.87
2023-02-13T16:59:48.165Z,10.77
2023-02-13T17:02:28.750Z,5.57
2023-02-13T17:05:08.356Z,10.20
2023-02-13T17:07:41.658Z,11.90
2023-02-13T17:10:27.348Z,22.27
2023-02-13T17:13:01.455Z,16.90
2023-02-13T17:15:31.241Z,7.27
2023-02-13T17:17:58.862Z,12.03
2023-02-13T17:20:29.641Z,9.73
2023-02-13T17:23:00.305Z,19.43
2023-02-13T17:25:32.237Z,23.97
2023-02-13T17:28:12.166Z,17.33
2023-02-13T17:30:39.940Z,6.87
2023-02-13T17:33:13.967Z,5.90
2023-02-13T17:35:41.432Z,13.90
2023-02-13T17:38:10.138Z,13.10
2023-02-13T17:40:37.591Z,15.87
2023-02-13T17:43:05.144Z,14.73
2023-02-13T17:45:34.391Z,10.27
2023-02-13T17:48:01.849Z,10.20
2023-02-13T17:50:31.536Z,8.93
2023-02-13T17:53:03.960Z,7.20
2023-02-13T17:55:33.419Z,6.57
2023-02-13T17:58:01.167Z,6.73
2023-02-13T18:00:31.352Z,6.57
2023-02-13T18:03:00.657Z,6.20
2023-02-13T18:05:28.650Z,6.07
2023-02-13T18:07:56.086Z,13.03
2023-02-13T18:10:26.563Z,16.40
2023-02-13T18:12:56.821Z,5.53
2023-02-13T18:15:24.466Z,9.20
2023-02-13T18:17:51.761Z,13.03
2023-02-13T18:20:21.367Z,12.43
2023-02-13T18:22:52.446Z,20.57
2023-02-13T18:25:20.716Z,18.33
2023-02-13T18:27:48.555Z,10.70
2023-02-13T18:30:19.016Z,8.77
2023-02-13T18:32:50.886Z,12.47
2023-02-13T18:35:18.968Z,13.93
2023-02-13T18:37:46.313Z,13.67
2023-02-13T18:40:15.159Z,13.27
2023-02-13T18:42:42.549Z,9.17
2023-02-13T18:45:11.953Z,8.77
2023-02-13T18:47:40.225Z,11.23
2023-02-13T18:50:08.869Z,19.20
2023-02-13T18:52:36.479Z,8.40
2023-02-13T18:55:06.812Z,10.10
2023-02-13T18:57:34.198Z,11.20
2023-02-13T19:00:01.906Z,15.37
2023-02-13T19:02:30.428Z,16.03
2023-02-13T19:04:57.708Z,12.93
2023-02-13T19:07:24.937Z,13.27
2023-02-13T19:09:52.220Z,10.23
2023-02-13T19:12:19.475Z,7.90
2023-02-13T19:14:47.734Z,7.47
2023-02-13T19:17:14.979Z,7.07
2023-02-13T19:19:46.245Z,6.70
2023-02-13T19:22:13.879Z,6.83
2023-02-13T19:24:41.700Z,7.77
2023-02-13T19:27:09.007Z,7.77
2023-02-13T19:29:36.250Z,11.10
2023-02-13T19:32:04.087Z,9.90
2023-02-13T19:34:31.404Z,9.60
2023-02-13T19:36:58.662Z,8.93
2023-02-13T19:39:25.982Z,8.47
2023-02-13T19:41:53.235Z,10.50
2023-02-13T19:44:21.014Z,8.37
2023-02-13T19:46:48.295Z,11.10
2023-02-13T19:49:16.618Z,11.73
2023-02-13T19:51:46.114Z,11.17
2023-02-13T19:54:13.441Z,14.83
2023-02-13T19:56:41.286Z,10.93
2023-02-13T19:59:12.191Z,7.70
2023-02-13T20:01:42.803Z,7.47
2023-02-13T20:04:11.736Z,5.90
2023-02-13T20:06:39.974Z,7.00
2023-02-13T20:09:11.341Z,9.30
2023-02-13T20:11:40.594Z,10.70
2023-02-13T20:14:11.484Z,11.17
2023-02-13T20:16:39.300Z,16.00
2023-02-13T20:19:09.719Z,28.00
2023-02-13T20:21:38.259Z,24.03
2023-02-13T20:24:05.904Z,10.80
2023-02-13T20:26:34.080Z,9.30
2023-02-13T20:29:01.920Z,11.63
2023-02-13T20:31:30.545Z,8.67
2023-02-13T20:33:59.066Z,12.60
2023-02-13T20:36:29.417Z,90.47
2023-02-13T20:39:02.010Z,10.13
2023-02-13T20:41:31.934Z,7.50
2023-02-13T20:44:01.914Z,15.80
2023-02-13T20:46:30.988Z,11.13
2023-02-13T20:48:58.611Z,16.43
2023-02-13T20:51:26.332Z,20.60
2023-02-13T20:53:54.760Z,8.60
2023-02-13T20:56:25.308Z,19.53
2023-02-13T20:58:54.797Z,24.93
2023-02-13T21:01:28.486Z,11.57
2023-02-13T21:03:56.034Z,15.33
2023-02-13T21:06:32.949Z,12.80
2023-02-13T21:09:01.027Z,12.33
2023-02-13T21:11:29.522Z,11.40
2023-02-13T21:13:58.508Z,9.50
2023-02-13T21:16:29.163Z,9.47
2023-02-13T21:18:59.792Z,6.83
2023-02-13T21:21:31.563Z,8.13
2023-02-13T21:24:07.644Z,6.83
2023-02-13T21:26:36.281Z,6.27
2023-02-13T21:29:05.809Z,6.47
2023-02-13T21:31:36.560Z,7.13
2023-02-13T21:34:08.729Z,6.60
2023-02-13T21:36:37.177Z,7.37
2023-02-13T21:39:07.026Z,7.67
2023-02-13T21:41:34.730Z,8.57
2023-02-13T21:44:02.152Z,6.93
2023-02-13T21:46:31.477Z,6.80
2023-02-13T21:49:11.835Z,8.17
2023-02-13T21:51:39.165Z,7.67
2023-02-13T21:54:06.952Z,7.97
2023-02-13T21:56:36.757Z,7.33
2023-02-13T21:59:05.361Z,7.00
2023-02-13T22:01:46.697Z,7.13
2023-02-13T22:04:14.539Z,8.17
2023-02-13T22:06:42.204Z,7.60
2023-02-13T22:09:12.182Z,7.60
2023-02-13T22:11:40.097Z,8.33
2023-02-13T22:14:11.222Z,7.73
2023-02-13T22:16:39.126Z,7.63
2023-02-13T22:19:07.347Z,7.30
2023-02-13T22:21:36.326Z,7.57
2023-02-13T22:24:03.800Z,7.13
2023-02-13T22:26:34.438Z,7.80
2023-02-13T22:29:06.584Z,6.90
2023-02-13T22:31:34.974Z,7.33
2023-02-13T22:34:04.620Z,7.63
2023-02-13T22:36:33.982Z,7.70
2023-02-13T22:39:01.363Z,7.07
2023-02-13T22:41:29.152Z,7.17
2023-02-13T22:43:57.033Z,7.40
2023-02-13T22:46:30.814Z,6.70
2023-02-13T22:48:59.550Z,7.47
2023-02-13T22:51:29.670Z,6.50
2023-02-13T22:53:58.809Z,6.40
2023-02-13T22:56:27.672Z,6.83
2023-02-13T22:58:55.066Z,6.00
2023-02-13T23:01:24.443Z,6.80
2023-02-13T23:03:52.011Z,7.13
2023-02-13T23:06:20.115Z,6.33
2023-02-13T23:08:52.278Z,6.40
2023-02-13T23:11:40.627Z,6.60
2023-02-13T23:14:08.180Z,6.50
2023-02-13T23:16:55.396Z,6.90
2023-02-13T23:19:22.665Z,6.53
2023-02-13T23:21:49.907Z,6.27
2023-02-13T23:24:17.362Z,6.80
2023-02-13T23:26:44.905Z,5.70
2023-02-13T23:29:12.338Z,5.77
2023-02-13T23:31:39.833Z,6.70
2023-02-13T23:34:07.156Z,6.50
2023-02-13T23:36:34.539Z,6.37
2023-02-13T23:39:01.890Z,6.77
2023-02-13T23:41:29.175Z,6.60
2023-02-13T23:43:56.453Z,6.70
2023-02-13T23:46:23.907Z,5.70
2023-02-13T23:48:51.801Z,6.23
2023-02-13T23:51:21.372Z,7.60
2023-02-13T23:53:49.379Z,7.73
2023-02-13T23:56:16.627Z,8.00
2023-02-13T23:58:43.880Z,7.67
